ADDS METAR Data INFO
IDs: Format: Raw Decoded Include TAF

Data at: 2327 UTC 19 Oct 2017

KGEY 192253Z AUTO 17004KT 10SM CLR 24/M06 A2973 RMK AO2 SLP052 T02391061
KGEY 192153Z AUTO 15006KT 10SM CLR 23/M06 A2975 RMK AO2 SLP058 T02331056
KGEY 192053Z AUTO 16008KT 10SM CLR 23/M06 A2977 RMK AO2 SLP062 T02331061 57033 $
KGEY 191953Z AUTO 15007KT 10SM CLR 22/M03 A2980 RMK AO2 SLP076 T02221033 $
KGEY 191853Z AUTO 00000KT 10SM CLR 18/M03 A2985 RMK AO2 SLP097 T01831033 $
KGEY 191753Z AUTO 15005KT 10SM CLR 16/M03 A2988 RMK AO2 SLP106 T01561028 10156 20006 58017 $
KGEY 191653Z AUTO VRB03KT 10SM CLR 12/M03 A2991 RMK AO2 SLP122 T01171028 $
KGEY 191553Z AUTO 05003KT 10SM CLR 08/M03 A2993 RMK AO2 SLP132 T00831028 $
KGEY 191453Z AUTO 15003KT 10SM CLR 04/M03 A2993 RMK AO2 SLP136 T00391028 53003 $
KGEY 191353Z AUTO 00000KT 10SM CLR 02/M04 A2992 RMK AO2 SLP130 T00171044 $
KGEY 191253Z AUTO 00000KT 10SM CLR 01/M04 A2992 RMK AO2 SLP130 T00111044 $
KGEY 191153Z AUTO 14004KT 10SM CLR 02/M03 A2992 RMK AO2 SLP127 T00171033 10089 20011 56004 $
KGEY 191053Z AUTO 32003KT 10SM CLR 02/M04 A2993 RMK AO2 SLP126 T00221044 $
KGEY 190953Z AUTO 32006KT 10SM CLR 04/M04 A2992 RMK AO2 SLP119 T00391044 $
KGEY 190853Z AUTO 03003KT 10SM CLR 06/M04 A2994 RMK AO2 SLP123 T00561039 56006 $
KGEY 190753Z AUTO VRB05KT 10SM CLR 06/M04 A2994 RMK AO2 SLP125 T00561039 $
KGEY 190653Z AUTO 00000KT 10SM CLR 05/M05 A2995 RMK AO2 SLP132 T00501050 402220017 $
KGEY 190553Z AUTO 12003KT 10SM CLR 09/M05 A2996 RMK AO2 SLP134 T00891050 10194 20078 53006 $
KGEY 190453Z AUTO 14005KT 10SM CLR 09/M05 A2995 RMK AO2 SLP135 T00941050 $
KGEY 190353Z AUTO 00000KT 10SM CLR 10/M05 A2994 RMK AO2 SLP138 T01001050 $
KGEY 190253Z AUTO 10003KT 10SM CLR 14/M07 A2994 RMK AO2 SLP134 T01391072 50001 $
KGEY 190153Z AUTO 13004KT 10SM CLR 17/M08 A2994 RMK AO2 SLP136 T01671083 $
KGEY 190053Z AUTO 11003KT 10SM CLR 18/M07 A2993 RMK AO2 SLP131 T01781072 $
KGEY 182353Z AUTO 10006KT 10SM CLR 19/M08 A2994 RMK AO2 SLP126 T01941078 10222 20156 56011
KGEY 182253Z AUTO 10006KT 10SM CLR 21/M08 A2994 RMK AO2 SLP126 T02111083
KGEY 182153Z AUTO 16007KT 10SM CLR 22/M08 A2995 RMK AO2 SLP123 T02221083
KGEY 182053Z AUTO 17008KT 10SM CLR 22/M09 A2997 RMK AO2 SLP132 T02171094 56024
KGEY 181953Z AUTO 15008KT 10SM CLR 22/M09 A2999 RMK AO2 SLP136 T02171094
KGEY 181853Z AUTO 15006KT 10SM CLR 19/M06 A3002 RMK AO2 SLP146 T01941056
KGEY 181753Z AUTO 17005KT 10SM CLR 16/M03 A3005 RMK AO2 SLP164 T01561033 10156 20017 58001
KGEY 181653Z AUTO 00000KT 10SM CLR 13/M03 A3006 RMK AO2 SLP170 T01281033
KGEY 181553Z AUTO 00000KT 10SM CLR 09/M03 A3006 RMK AO2 SLP175 T00891033
KGEY 181453Z AUTO 16003KT 10SM CLR 06/M03 A3005 RMK AO2 SLP176 T00561033 53021
KGEY 181353Z AUTO 13006KT 10SM CLR 03/M04 A3003 RMK AO2 SLP167 T00281039
KGEY 181253Z AUTO 13004KT 10SM CLR 03/M03 A3000 RMK AO2 SLP154 T00331033
KGEY 181153Z AUTO 00000KT 10SM CLR 05/M04 A2998 RMK AO2 SLP140 T00501039 10144 20033 53020